sensor_id;sensor_type;location;lat;lon;timestamp;temperature;humidity
24162;DHT22;12318;51.262;7.066;2023-03-02T00:04:20;1.30;84.70
24162;DHT22;12318;51.262;7.066;2023-03-02T00:06:47;1.30;84.70
24162;DHT22;12318;51.262;7.066;2023-03-02T00:12:35;1.40;84.30
24162;DHT22;12318;51.262;7.066;2023-03-02T00:15:01;1.30;84.20
24162;DHT22;12318;51.262;7.066;2023-03-02T00:17:26;1.30;84.40
24162;DHT22;12318;51.262;7.066;2023-03-02T00:20:03;1.20;85.00
24162;DHT22;12318;51.262;7.066;2023-03-02T00:22:39;1.20;84.90
24162;DHT22;12318;51.262;7.066;2023-03-02T00:25:05;1.00;85.40
24162;DHT22;12318;51.262;7.066;2023-03-02T00:27:31;1.00;85.70
24162;DHT22;12318;51.262;7.066;2023-03-02T00:30:10;1.10;85.60
24162;DHT22;12318;51.262;7.066;2023-03-02T00:32:36;1.00;85.40
24162;DHT22;12318;51.262;7.066;2023-03-02T00:35:03;1.00;85.60
24162;DHT22;12318;51.262;7.066;2023-03-02T00:37:28;0.90;85.80
24162;DHT22;12318;51.262;7.066;2023-03-02T00:40:19;0.90;86.50
24162;DHT22;12318;51.262;7.066;2023-03-02T00:42:45;0.90;86.80
24162;DHT22;12318;51.262;7.066;2023-03-02T00:45:11;0.90;86.60
24162;DHT22;12318;51.262;7.066;2023-03-02T00:47:37;0.80;87.10
24162;DHT22;12318;51.262;7.066;2023-03-02T00:50:04;0.90;87.30
24162;DHT22;12318;51.262;7.066;2023-03-02T00:52:31;0.90;86.80
24162;DHT22;12318;51.262;7.066;2023-03-02T00:54:57;0.90;87.20
24162;DHT22;12318;51.262;7.066;2023-03-02T00:57:23;0.80;87.70
24162;DHT22;12318;51.262;7.066;2023-03-02T00:59:49;0.60;88.90
24162;DHT22;12318;51.262;7.066;2023-03-02T01:02:15;0.60;89.00
24162;DHT22;12318;51.262;7.066;2023-03-02T01:04:42;0.50;89.10
24162;DHT22;12318;51.262;7.066;2023-03-02T01:07:11;0.50;89.10
24162;DHT22;12318;51.262;7.066;2023-03-02T01:09:54;0.50;90.10
24162;DHT22;12318;51.262;7.066;2023-03-02T01:12:20;0.50;89.60
24162;DHT22;12318;51.262;7.066;2023-03-02T01:14:47;0.50;89.50
24162;DHT22;12318;51.262;7.066;2023-03-02T01:17:13;0.40;89.60
24162;DHT22;12318;51.262;7.066;2023-03-02T01:19:53;0.40;90.00
24162;DHT22;12318;51.262;7.066;2023-03-02T01:22:20;0.50;90.00
24162;DHT22;12318;51.262;7.066;2023-03-02T01:24:46;0.50;89.40
24162;DHT22;12318;51.262;7.066;2023-03-02T01:27:12;0.60;89.20
24162;DHT22;12318;51.262;7.066;2023-03-02T01:30:00;0.60;89.00
24162;DHT22;12318;51.262;7.066;2023-03-02T01:32:25;0.60;89.70
24162;DHT22;12318;51.262;7.066;2023-03-02T01:34:51;0.60;89.00
24162;DHT22;12318;51.262;7.066;2023-03-02T01:37:17;0.50;89.10
24162;DHT22;12318;51.262;7.066;2023-03-02T01:43:11;0.30;89.90
24162;DHT22;12318;51.262;7.066;2023-03-02T01:45:50;0.30;90.20
24162;DHT22;12318;51.262;7.066;2023-03-02T01:51:15;0.20;90.70
24162;DHT22;12318;51.262;7.066;2023-03-02T01:53:43;0.10;90.80
24162;DHT22;12318;51.262;7.066;2023-03-02T01:56:17;0.20;90.80
24162;DHT22;12318;51.262;7.066;2023-03-02T01:58:45;0.20;90.80
24162;DHT22;12318;51.262;7.066;2023-03-02T02:01:15;0.20;90.90
24162;DHT22;12318;51.262;7.066;2023-03-02T02:03:48;0.20;90.80
24162;DHT22;12318;51.262;7.066;2023-03-02T02:06:24;0.30;90.70
24162;DHT22;12318;51.262;7.066;2023-03-02T02:12:14;0.30;90.80
24162;DHT22;12318;51.262;7.066;2023-03-02T02:14:41;0.20;90.80
24162;DHT22;12318;51.262;7.066;2023-03-02T02:17:07;0.20;90.80
24162;DHT22;12318;51.262;7.066;2023-03-02T02:23:32;0.20;90.80
24162;DHT22;12318;51.262;7.066;2023-03-02T02:26:18;0.10;91.00
24162;DHT22;12318;51.262;7.066;2023-03-02T02:28:58;0.10;91.20
24162;DHT22;12318;51.262;7.066;2023-03-02T02:31:38;0.10;91.00
24162;DHT22;12318;51.262;7.066;2023-03-02T02:34:28;0.00;91.20
24162;DHT22;12318;51.262;7.066;2023-03-02T02:36:59;0.10;91.40
24162;DHT22;12318;51.262;7.066;2023-03-02T02:39:55;0.00;91.30
24162;DHT22;12318;51.262;7.066;2023-03-02T02:42:28;0.00;91.40
24162;DHT22;12318;51.262;7.066;2023-03-02T02:44:57;0.10;91.40
24162;DHT22;12318;51.262;7.066;2023-03-02T02:47:23;0.00;91.60
24162;DHT22;12318;51.262;7.066;2023-03-02T02:50:02;0.10;91.60
24162;DHT22;12318;51.262;7.066;2023-03-02T02:52:28;-0.10;91.50
24162;DHT22;12318;51.262;7.066;2023-03-02T02:54:56;0.00;92.20
24162;DHT22;12318;51.262;7.066;2023-03-02T02:57:25;0.00;91.80
24162;DHT22;12318;51.262;7.066;2023-03-02T03:00:22;0.00;91.70
24162;DHT22;12318;51.262;7.066;2023-03-02T03:02:52;0.00;91.70
24162;DHT22;12318;51.262;7.066;2023-03-02T03:05:20;0.10;91.60
24162;DHT22;12318;51.262;7.066;2023-03-02T03:07:45;0.10;91.40
24162;DHT22;12318;51.262;7.066;2023-03-02T03:13:33;0.10;91.40
24162;DHT22;12318;51.262;7.066;2023-03-02T03:16:01;0.00;91.30
24162;DHT22;12318;51.262;7.066;2023-03-02T03:18:27;0.10;91.60
24162;DHT22;12318;51.262;7.066;2023-03-02T03:21:15;0.00;91.50
24162;DHT22;12318;51.262;7.066;2023-03-02T03:23:43;0.00;91.60
24162;DHT22;12318;51.262;7.066;2023-03-02T03:26:09;0.00;91.50
24162;DHT22;12318;51.262;7.066;2023-03-02T03:28:35;-0.10;91.50
24162;DHT22;12318;51.262;7.066;2023-03-02T03:31:12;-0.10;91.70
24162;DHT22;12318;51.262;7.066;2023-03-02T03:33:37;-0.10;91.60
24162;DHT22;12318;51.262;7.066;2023-03-02T03:36:04;-0.20;91.70
24162;DHT22;12318;51.262;7.066;2023-03-02T03:38:30;-0.30;91.70
24162;DHT22;12318;51.262;7.066;2023-03-02T03:41:14;-0.30;92.00
24162;DHT22;12318;51.262;7.066;2023-03-02T03:43:40;-0.10;92.00
24162;DHT22;12318;51.262;7.066;2023-03-02T03:46:06;-0.20;91.70
24162;DHT22;12318;51.262;7.066;2023-03-02T03:48:32;-0.20;91.90
24162;DHT22;12318;51.262;7.066;2023-03-02T03:50:59;-0.30;91.80
24162;DHT22;12318;51.262;7.066;2023-03-02T03:53:26;-0.20;92.00
24162;DHT22;12318;51.262;7.066;2023-03-02T03:55:52;-0.20;91.70
24162;DHT22;12318;51.262;7.066;2023-03-02T03:58:18;-0.20;91.70
24162;DHT22;12318;51.262;7.066;2023-03-02T04:00:45;-0.20;91.70
24162;DHT22;12318;51.262;7.066;2023-03-02T04:03:13;-0.30;91.50
24162;DHT22;12318;51.262;7.066;2023-03-02T04:05:40;-0.30;91.50
24162;DHT22;12318;51.262;7.066;2023-03-02T04:08:06;-0.20;91.50
24162;DHT22;12318;51.262;7.066;2023-03-02T04:10:32;-0.20;91.30
24162;DHT22;12318;51.262;7.066;2023-03-02T04:12:58;-0.10;91.20
24162;DHT22;12318;51.262;7.066;2023-03-02T04:15:24;-0.10;90.80
24162;DHT22;12318;51.262;7.066;2023-03-02T04:17:50;-0.10;90.70
24162;DHT22;12318;51.262;7.066;2023-03-02T04:20:46;-0.10;90.50
24162;DHT22;12318;51.262;7.066;2023-03-02T04:23:12;0.00;90.20
24162;DHT22;12318;51.262;7.066;2023-03-02T04:25:38;0.00;90.00
24162;DHT22;12318;51.262;7.066;2023-03-02T04:28:04;0.00;90.00
24162;DHT22;12318;51.262;7.066;2023-03-02T04:30:30;0.00;90.00
24162;DHT22;12318;51.262;7.066;2023-03-02T04:32:57;0.00;89.90
24162;DHT22;12318;51.262;7.066;2023-03-02T04:35:23;-0.10;90.00
24162;DHT22;12318;51.262;7.066;2023-03-02T04:37:49;-0.10;90.00
24162;DHT22;12318;51.262;7.066;2023-03-02T04:40:25;-0.10;90.00
24162;DHT22;12318;51.262;7.066;2023-03-02T04:42:51;-0.10;89.70
24162;DHT22;12318;51.262;7.066;2023-03-02T04:45:16;-0.10;89.90
24162;DHT22;12318;51.262;7.066;2023-03-02T04:47:42;-0.20;90.00
24162;DHT22;12318;51.262;7.066;2023-03-02T04:50:23;-0.20;89.90
24162;DHT22;12318;51.262;7.066;2023-03-02T04:52:49;-0.10;90.00
24162;DHT22;12318;51.262;7.066;2023-03-02T04:55:24;-0.20;90.00
24162;DHT22;12318;51.262;7.066;2023-03-02T05:00:30;-0.20;90.10
24162;DHT22;12318;51.262;7.066;2023-03-02T05:03:03;-0.30;90.20
24162;DHT22;12318;51.262;7.066;2023-03-02T05:05:30;-0.30;90.30
24162;DHT22;12318;51.262;7.066;2023-03-02T05:07:56;-0.40;90.50
24162;DHT22;12318;51.262;7.066;2023-03-02T05:10:27;-0.40;90.60
24162;DHT22;12318;51.262;7.066;2023-03-02T05:12:53;-0.50;90.70
24162;DHT22;12318;51.262;7.066;2023-03-02T05:15:34;-0.50;90.80
24162;DHT22;12318;51.262;7.066;2023-03-02T05:18:01;-0.40;90.80
24162;DHT22;12318;51.262;7.066;2023-03-02T05:20:27;-0.50;90.70
24162;DHT22;12318;51.262;7.066;2023-03-02T05:22:56;-0.40;90.90
24162;DHT22;12318;51.262;7.066;2023-03-02T05:25:23;-0.50;90.70
24162;DHT22;12318;51.262;7.066;2023-03-02T05:27:49;-0.40;90.70
24162;DHT22;12318;51.262;7.066;2023-03-02T05:30:15;-0.20;90.40
24162;DHT22;12318;51.262;7.066;2023-03-02T05:32:41;-0.30;90.30
24162;DHT22;12318;51.262;7.066;2023-03-02T05:35:07;-0.30;90.30
24162;DHT22;12318;51.262;7.066;2023-03-02T05:37:34;-0.40;90.50
24162;DHT22;12318;51.262;7.066;2023-03-02T05:39:59;-0.40;90.50
24162;DHT22;12318;51.262;7.066;2023-03-02T05:42:25;-0.40;90.60
24162;DHT22;12318;51.262;7.066;2023-03-02T05:44:51;-0.40;90.60
24162;DHT22;12318;51.262;7.066;2023-03-02T05:47:17;-0.30;90.30
24162;DHT22;12318;51.262;7.066;2023-03-02T05:49:42;-0.30;90.10
24162;DHT22;12318;51.262;7.066;2023-03-02T05:52:08;-0.30;90.10
24162;DHT22;12318;51.262;7.066;2023-03-02T05:54:34;-0.30;90.10
24162;DHT22;12318;51.262;7.066;2023-03-02T05:57:01;-0.30;90.10
24162;DHT22;12318;51.262;7.066;2023-03-02T05:59:27;-0.30;90.20
24162;DHT22;12318;51.262;7.066;2023-03-02T06:01:52;-0.30;90.10
24162;DHT22;12318;51.262;7.066;2023-03-02T06:04:23;-0.30;89.80
24162;DHT22;12318;51.262;7.066;2023-03-02T06:06:49;-0.20;90.00
24162;DHT22;12318;51.262;7.066;2023-03-02T06:09:15;-0.20;89.90
24162;DHT22;12318;51.262;7.066;2023-03-02T06:11:41;-0.20;89.50
24162;DHT22;12318;51.262;7.066;2023-03-02T06:14:07;-0.20;89.50
24162;DHT22;12318;51.262;7.066;2023-03-02T06:16:32;-0.30;89.50
24162;DHT22;12318;51.262;7.066;2023-03-02T06:18:58;-0.20;89.10
24162;DHT22;12318;51.262;7.066;2023-03-02T06:21:24;-0.20;89.10
24162;DHT22;12318;51.262;7.066;2023-03-02T06:23:50;-0.30;89.60
24162;DHT22;12318;51.262;7.066;2023-03-02T06:26:15;-0.30;89.70
24162;DHT22;12318;51.262;7.066;2023-03-02T06:28:41;-0.40;89.80
24162;DHT22;12318;51.262;7.066;2023-03-02T06:31:07;-0.30;89.70
24162;DHT22;12318;51.262;7.066;2023-03-02T06:33:33;-0.30;89.90
24162;DHT22;12318;51.262;7.066;2023-03-02T06:35:58;-0.20;89.90
24162;DHT22;12318;51.262;7.066;2023-03-02T06:38:24;-0.20;89.50
24162;DHT22;12318;51.262;7.066;2023-03-02T06:40:50;-0.30;89.80
24162;DHT22;12318;51.262;7.066;2023-03-02T06:43:16;-0.30;90.00
24162;DHT22;12318;51.262;7.066;2023-03-02T06:45:41;-0.20;90.00
24162;DHT22;12318;51.262;7.066;2023-03-02T06:48:07;-0.40;90.10
24162;DHT22;12318;51.262;7.066;2023-03-02T06:50:33;-0.50;90.30
24162;DHT22;12318;51.262;7.066;2023-03-02T06:52:59;-0.40;90.60
24162;DHT22;12318;51.262;7.066;2023-03-02T06:55:25;-0.50;90.70
24162;DHT22;12318;51.262;7.066;2023-03-02T06:57:51;-0.40;90.60
24162;DHT22;12318;51.262;7.066;2023-03-02T07:00:17;-0.30;90.30
24162;DHT22;12318;51.262;7.066;2023-03-02T07:02:50;-0.20;89.90
24162;DHT22;12318;51.262;7.066;2023-03-02T07:05:16;-0.10;89.30
24162;DHT22;12318;51.262;7.066;2023-03-02T07:07:42;0.00;88.50
24162;DHT22;12318;51.262;7.066;2023-03-02T07:10:08;0.00;88.50
24162;DHT22;12318;51.262;7.066;2023-03-02T07:12:36;0.00;87.90
24162;DHT22;12318;51.262;7.066;2023-03-02T07:15:10;0.20;87.30
24162;DHT22;12318;51.262;7.066;2023-03-02T07:17:47;0.10;87.60
24162;DHT22;12318;51.262;7.066;2023-03-02T07:20:15;0.20;87.10
24162;DHT22;12318;51.262;7.066;2023-03-02T07:22:42;0.20;87.00
24162;DHT22;12318;51.262;7.066;2023-03-02T07:25:09;0.30;87.20
24162;DHT22;12318;51.262;7.066;2023-03-02T07:27:40;0.40;86.90
24162;DHT22;12318;51.262;7.066;2023-03-02T07:30:09;0.50;86.30
24162;DHT22;12318;51.262;7.066;2023-03-02T07:32:36;0.50;86.30
24162;DHT22;12318;51.262;7.066;2023-03-02T07:35:02;0.50;85.70
24162;DHT22;12318;51.262;7.066;2023-03-02T07:37:30;0.50;85.90
24162;DHT22;12318;51.262;7.066;2023-03-02T07:39:56;0.60;85.10
24162;DHT22;12318;51.262;7.066;2023-03-02T07:42:22;0.60;84.90
24162;DHT22;12318;51.262;7.066;2023-03-02T07:44:50;0.70;83.90
24162;DHT22;12318;51.262;7.066;2023-03-02T07:47:18;0.70;83.90
24162;DHT22;12318;51.262;7.066;2023-03-02T07:49:44;0.80;83.70
24162;DHT22;12318;51.262;7.066;2023-03-02T07:52:10;0.90;83.10
24162;DHT22;12318;51.262;7.066;2023-03-02T07:54:36;0.90;83.00
24162;DHT22;12318;51.262;7.066;2023-03-02T07:57:02;1.00;82.90
24162;DHT22;12318;51.262;7.066;2023-03-02T07:59:28;1.00;83.10
24162;DHT22;12318;51.262;7.066;2023-03-02T08:01:55;1.10;82.40
24162;DHT22;12318;51.262;7.066;2023-03-02T08:04:21;1.20;82.50
24162;DHT22;12318;51.262;7.066;2023-03-02T08:06:47;1.30;81.70
24162;DHT22;12318;51.262;7.066;2023-03-02T08:09:13;1.40;81.40
24162;DHT22;12318;51.262;7.066;2023-03-02T08:11:39;1.40;80.80
24162;DHT22;12318;51.262;7.066;2023-03-02T08:14:06;1.50;80.70
24162;DHT22;12318;51.262;7.066;2023-03-02T08:16:32;1.50;81.00
24162;DHT22;12318;51.262;7.066;2023-03-02T08:18:58;1.60;80.20
24162;DHT22;12318;51.262;7.066;2023-03-02T08:21:25;1.70;79.70
24162;DHT22;12318;51.262;7.066;2023-03-02T08:23:51;1.80;79.30
24162;DHT22;12318;51.262;7.066;2023-03-02T08:26:19;1.80;79.10
24162;DHT22;12318;51.262;7.066;2023-03-02T08:28:49;1.90;78.50
24162;DHT22;12318;51.262;7.066;2023-03-02T08:31:17;2.10;78.10
24162;DHT22;12318;51.262;7.066;2023-03-02T08:33:42;2.20;76.50
24162;DHT22;12318;51.262;7.066;2023-03-02T08:36:18;2.30;76.10
24162;DHT22;12318;51.262;7.066;2023-03-02T08:38:45;2.50;75.30
24162;DHT22;12318;51.262;7.066;2023-03-02T08:41:40;2.60;73.20
24162;DHT22;12318;51.262;7.066;2023-03-02T08:44:22;2.70;72.50
24162;DHT22;12318;51.262;7.066;2023-03-02T08:46:49;2.90;72.70
24162;DHT22;12318;51.262;7.066;2023-03-02T08:49:19;3.10;73.00
24162;DHT22;12318;51.262;7.066;2023-03-02T08:54:35;3.20;68.90
24162;DHT22;12318;51.262;7.066;2023-03-02T08:57:10;3.20;68.70
24162;DHT22;12318;51.262;7.066;2023-03-02T08:59:43;3.30;67.50
24162;DHT22;12318;51.262;7.066;2023-03-02T09:02:10;3.30;66.90
24162;DHT22;12318;51.262;7.066;2023-03-02T09:04:37;3.40;67.30
24162;DHT22;12318;51.262;7.066;2023-03-02T09:07:03;3.50;67.40
24162;DHT22;12318;51.262;7.066;2023-03-02T09:09:29;3.60;67.20
24162;DHT22;12318;51.262;7.066;2023-03-02T09:11:55;3.70;66.60
24162;DHT22;12318;51.262;7.066;2023-03-02T09:14:21;3.80;66.10
24162;DHT22;12318;51.262;7.066;2023-03-02T09:16:56;3.90;64.80
24162;DHT22;12318;51.262;7.066;2023-03-02T09:19:21;4.20;65.10
24162;DHT22;12318;51.262;7.066;2023-03-02T09:21:49;4.30;64.80
24162;DHT22;12318;51.262;7.066;2023-03-02T09:27:41;4.60;63.10
24162;DHT22;12318;51.262;7.066;2023-03-02T09:30:11;4.60;62.40
24162;DHT22;12318;51.262;7.066;2023-03-02T09:32:40;4.70;62.50
24162;DHT22;12318;51.262;7.066;2023-03-02T09:35:16;4.80;61.60
24162;DHT22;12318;51.262;7.066;2023-03-02T09:37:44;4.90;61.00
24162;DHT22;12318;51.262;7.066;2023-03-02T09:40:23;5.10;60.80
24162;DHT22;12318;51.262;7.066;2023-03-02T09:43:17;5.00;60.00
24162;DHT22;12318;51.262;7.066;2023-03-02T09:54:48;5.00;58.20
24162;DHT22;12318;51.262;7.066;2023-03-02T09:57:24;5.20;58.90
24162;DHT22;12318;51.262;7.066;2023-03-02T10:02:54;5.60;58.30
24162;DHT22;12318;51.262;7.066;2023-03-02T10:05:26;5.60;58.70
24162;DHT22;12318;51.262;7.066;2023-03-02T10:07:52;5.60;58.90
24162;DHT22;12318;51.262;7.066;2023-03-02T10:10:45;5.60;57.80
24162;DHT22;12318;51.262;7.066;2023-03-02T10:18:36;5.80;55.20
24162;DHT22;12318;51.262;7.066;2023-03-02T10:21:26;5.60;56.80
24162;DHT22;12318;51.262;7.066;2023-03-02T10:26:53;5.70;56.00
24162;DHT22;12318;51.262;7.066;2023-03-02T10:29:49;5.70;56.10
24162;DHT22;12318;51.262;7.066;2023-03-02T10:32:22;5.50;56.40
24162;DHT22;12318;51.262;7.066;2023-03-02T10:34:50;5.60;56.90
24162;DHT22;12318;51.262;7.066;2023-03-02T10:37:20;5.90;56.60
24162;DHT22;12318;51.262;7.066;2023-03-02T10:39:48;6.10;56.60
24162;DHT22;12318;51.262;7.066;2023-03-02T10:42:30;6.20;55.40
24162;DHT22;12318;51.262;7.066;2023-03-02T10:45:07;6.40;55.30
24162;DHT22;12318;51.262;7.066;2023-03-02T10:48:06;6.00;54.40
24162;DHT22;12318;51.262;7.066;2023-03-02T10:50:51;6.10;55.70
24162;DHT22;12318;51.262;7.066;2023-03-02T10:53:20;6.20;53.50
24162;DHT22;12318;51.262;7.066;2023-03-02T10:55:48;6.30;52.40
24162;DHT22;12318;51.262;7.066;2023-03-02T10:58:30;6.20;53.00
24162;DHT22;12318;51.262;7.066;2023-03-02T11:01:27;6.20;53.40
24162;DHT22;12318;51.262;7.066;2023-03-02T11:04:00;6.50;53.70
24162;DHT22;12318;51.262;7.066;2023-03-02T11:06:31;6.60;52.90
24162;DHT22;12318;51.262;7.066;2023-03-02T11:09:05;6.70;53.00
24162;DHT22;12318;51.262;7.066;2023-03-02T11:11:35;6.80;54.10
24162;DHT22;12318;51.262;7.066;2023-03-02T11:14:27;6.80;54.40
24162;DHT22;12318;51.262;7.066;2023-03-02T11:20:15;6.70;54.10
24162;DHT22;12318;51.262;7.066;2023-03-02T11:25:45;6.80;54.50
24162;DHT22;12318;51.262;7.066;2023-03-02T11:28:35;6.80;53.80
24162;DHT22;12318;51.262;7.066;2023-03-02T11:31:45;6.70;54.20
24162;DHT22;12318;51.262;7.066;2023-03-02T11:34:34;6.80;54.80
24162;DHT22;12318;51.262;7.066;2023-03-02T11:37:19;7.00;55.20
24162;DHT22;12318;51.262;7.066;2023-03-02T11:42:18;6.80;53.10
24162;DHT22;12318;51.262;7.066;2023-03-02T11:50:57;7.10;53.40
24162;DHT22;12318;51.262;7.066;2023-03-02T11:56:01;7.30;52.60
24162;DHT22;12318;51.262;7.066;2023-03-02T11:58:33;7.30;51.90
24162;DHT22;12318;51.262;7.066;2023-03-02T12:00:59;7.40;51.50
24162;DHT22;12318;51.262;7.066;2023-03-02T12:06:04;7.30;51.10
24162;DHT22;12318;51.262;7.066;2023-03-02T12:08:38;7.10;51.00
24162;DHT22;12318;51.262;7.066;2023-03-02T12:13:58;7.40;51.00
24162;DHT22;12318;51.262;7.066;2023-03-02T12:16:35;7.60;50.50
24162;DHT22;12318;51.262;7.066;2023-03-02T12:19:26;7.60;49.90
24162;DHT22;12318;51.262;7.066;2023-03-02T12:22:01;7.70;50.30
24162;DHT22;12318;51.262;7.066;2023-03-02T12:24:38;7.90;49.50
24162;DHT22;12318;51.262;7.066;2023-03-02T12:27:41;7.70;49.50
24162;DHT22;12318;51.262;7.066;2023-03-02T12:35:36;7.80;48.70
24162;DHT22;12318;51.262;7.066;2023-03-02T12:38:29;7.90;48.70
24162;DHT22;12318;51.262;7.066;2023-03-02T12:47:23;8.40;48.20
24162;DHT22;12318;51.262;7.066;2023-03-02T12:50:19;8.30;47.00
24162;DHT22;12318;51.262;7.066;2023-03-02T12:53:28;8.30;47.30
24162;DHT22;12318;51.262;7.066;2023-03-02T12:56:23;8.30;47.20
24162;DHT22;12318;51.262;7.066;2023-03-02T12:59:00;8.40;47.30
24162;DHT22;12318;51.262;7.066;2023-03-02T13:01:30;8.60;47.70
24162;DHT22;12318;51.262;7.066;2023-03-02T13:04:35;8.50;46.90
24162;DHT22;12318;51.262;7.066;2023-03-02T13:10:40;8.60;46.40
24162;DHT22;12318;51.262;7.066;2023-03-02T13:19:26;8.80;45.30
24162;DHT22;12318;51.262;7.066;2023-03-02T13:22:05;8.70;44.70
24162;DHT22;12318;51.262;7.066;2023-03-02T13:24:55;8.70;45.80
24162;DHT22;12318;51.262;7.066;2023-03-02T13:27:27;8.70;45.50
24162;DHT22;12318;51.262;7.066;2023-03-02T13:30:07;8.70;44.20
24162;DHT22;12318;51.262;7.066;2023-03-02T13:36:28;8.80;44.20
24162;DHT22;12318;51.262;7.066;2023-03-02T13:39:18;8.90;43.40
24162;DHT22;12318;51.262;7.066;2023-03-02T13:42:24;8.80;42.70
24162;DHT22;12318;51.262;7.066;2023-03-02T13:47:48;9.00;43.50
24162;DHT22;12318;51.262;7.066;2023-03-02T13:50:25;9.20;43.10
24162;DHT22;12318;51.262;7.066;2023-03-02T13:55:50;9.10;42.20
24162;DHT22;12318;51.262;7.066;2023-03-02T13:58:26;9.10;43.60
24162;DHT22;12318;51.262;7.066;2023-03-02T14:00:58;9.10;42.00
24162;DHT22;12318;51.262;7.066;2023-03-02T14:03:27;9.20;40.90
24162;DHT22;12318;51.262;7.066;2023-03-02T14:05:54;9.20;41.60
24162;DHT22;12318;51.262;7.066;2023-03-02T14:08:23;9.30;41.40
24162;DHT22;12318;51.262;7.066;2023-03-02T14:10:57;9.20;40.00
24162;DHT22;12318;51.262;7.066;2023-03-02T14:13:31;9.30;40.10
24162;DHT22;12318;51.262;7.066;2023-03-02T14:16:04;9.30;41.50
24162;DHT22;12318;51.262;7.066;2023-03-02T14:18:50;9.20;40.30
24162;DHT22;12318;51.262;7.066;2023-03-02T14:21:22;9.20;39.70
24162;DHT22;12318;51.262;7.066;2023-03-02T14:26:43;8.80;38.40
24162;DHT22;12318;51.262;7.066;2023-03-02T14:29:23;9.00;40.60
24162;DHT22;12318;51.262;7.066;2023-03-02T14:31:51;9.20;40.00
24162;DHT22;12318;51.262;7.066;2023-03-02T14:34:17;9.20;40.60
24162;DHT22;12318;51.262;7.066;2023-03-02T14:36:48;9.10;39.40
24162;DHT22;12318;51.262;7.066;2023-03-02T14:39:39;9.20;40.20
24162;DHT22;12318;51.262;7.066;2023-03-02T14:42:15;9.20;38.80
24162;DHT22;12318;51.262;7.066;2023-03-02T14:44:42;9.20;39.00
24162;DHT22;12318;51.262;7.066;2023-03-02T14:47:08;9.30;39.70
24162;DHT22;12318;51.262;7.066;2023-03-02T14:49:35;9.30;38.90
24162;DHT22;12318;51.262;7.066;2023-03-02T14:52:03;9.20;39.60
24162;DHT22;12318;51.262;7.066;2023-03-02T14:57:22;9.20;39.40
24162;DHT22;12318;51.262;7.066;2023-03-02T14:59:50;9.20;39.20
24162;DHT22;12318;51.262;7.066;2023-03-02T15:02:17;9.10;38.50
24162;DHT22;12318;51.262;7.066;2023-03-02T15:04:43;9.10;39.20
24162;DHT22;12318;51.262;7.066;2023-03-02T15:07:13;9.10;40.30
24162;DHT22;12318;51.262;7.066;2023-03-02T15:09:40;9.10;39.70
24162;DHT22;12318;51.262;7.066;2023-03-02T15:12:08;9.00;40.10
24162;DHT22;12318;51.262;7.066;2023-03-02T15:14:34;9.10;39.90
24162;DHT22;12318;51.262;7.066;2023-03-02T15:17:00;9.20;40.70
24162;DHT22;12318;51.262;7.066;2023-03-02T15:19:29;9.10;40.30
24162;DHT22;12318;51.262;7.066;2023-03-02T15:21:54;9.00;40.50
24162;DHT22;12318;51.262;7.066;2023-03-02T15:24:20;9.10;40.90
24162;DHT22;12318;51.262;7.066;2023-03-02T15:26:51;9.00;40.60
24162;DHT22;12318;51.262;7.066;2023-03-02T15:29:18;8.90;41.30
24162;DHT22;12318;51.262;7.066;2023-03-02T15:31:45;8.90;42.20
24162;DHT22;12318;51.262;7.066;2023-03-02T15:34:11;8.90;42.60
24162;DHT22;12318;51.262;7.066;2023-03-02T15:36:37;9.00;43.90
24162;DHT22;12318;51.262;7.066;2023-03-02T15:39:04;8.90;44.60
24162;DHT22;12318;51.262;7.066;2023-03-02T15:41:32;8.90;44.50
24162;DHT22;12318;51.262;7.066;2023-03-02T15:44:00;8.80;45.00
24162;DHT22;12318;51.262;7.066;2023-03-02T15:46:26;8.70;44.90
24162;DHT22;12318;51.262;7.066;2023-03-02T15:48:52;8.60;46.20
24162;DHT22;12318;51.262;7.066;2023-03-02T15:51:20;8.60;45.80
24162;DHT22;12318;51.262;7.066;2023-03-02T15:53:46;8.70;46.10
24162;DHT22;12318;51.262;7.066;2023-03-02T15:56:14;8.60;46.00
24162;DHT22;12318;51.262;7.066;2023-03-02T15:58:45;8.60;45.80
24162;DHT22;12318;51.262;7.066;2023-03-02T16:01:11;8.50;46.10
24162;DHT22;12318;51.262;7.066;2023-03-02T16:03:41;8.50;46.70
24162;DHT22;12318;51.262;7.066;2023-03-02T16:06:07;8.40;47.50
24162;DHT22;12318;51.262;7.066;2023-03-02T16:08:34;8.50;46.80
24162;DHT22;12318;51.262;7.066;2023-03-02T16:11:05;8.50;46.60
24162;DHT22;12318;51.262;7.066;2023-03-02T16:13:31;8.40;47.30
24162;DHT22;12318;51.262;7.066;2023-03-02T16:16:01;8.30;47.90
24162;DHT22;12318;51.262;7.066;2023-03-02T16:18:28;8.40;48.30
24162;DHT22;12318;51.262;7.066;2023-03-02T16:20:53;8.40;48.60
24162;DHT22;12318;51.262;7.066;2023-03-02T16:23:20;8.40;48.90
24162;DHT22;12318;51.262;7.066;2023-03-02T16:25:45;8.30;49.00
24162;DHT22;12318;51.262;7.066;2023-03-02T16:28:16;8.40;48.80
24162;DHT22;12318;51.262;7.066;2023-03-02T16:30:43;8.40;49.10
24162;DHT22;12318;51.262;7.066;2023-03-02T16:33:13;8.20;49.90
24162;DHT22;12318;51.262;7.066;2023-03-02T16:35:38;8.20;49.90
24162;DHT22;12318;51.262;7.066;2023-03-02T16:38:05;8.10;50.10
24162;DHT22;12318;51.262;7.066;2023-03-02T16:40:31;8.10;50.30
24162;DHT22;12318;51.262;7.066;2023-03-02T16:43:00;8.10;50.00
24162;DHT22;12318;51.262;7.066;2023-03-02T16:45:26;8.10;50.40
24162;DHT22;12318;51.262;7.066;2023-03-02T16:47:52;8.00;50.80
24162;DHT22;12318;51.262;7.066;2023-03-02T16:50:18;7.90;51.20
24162;DHT22;12318;51.262;7.066;2023-03-02T16:52:44;7.70;52.00
24162;DHT22;12318;51.262;7.066;2023-03-02T16:55:12;7.80;52.00
24162;DHT22;12318;51.262;7.066;2023-03-02T16:57:39;7.70;52.30
24162;DHT22;12318;51.262;7.066;2023-03-02T17:00:11;7.70;52.20
24162;DHT22;12318;51.262;7.066;2023-03-02T17:02:37;7.60;52.60
24162;DHT22;12318;51.262;7.066;2023-03-02T17:05:03;7.70;52.90
24162;DHT22;12318;51.262;7.066;2023-03-02T17:07:29;7.60;54.10
24162;DHT22;12318;51.262;7.066;2023-03-02T17:09:54;7.50;56.30
24162;DHT22;12318;51.262;7.066;2023-03-02T17:12:23;7.30;58.20
24162;DHT22;12318;51.262;7.066;2023-03-02T17:14:50;7.10;60.10
24162;DHT22;12318;51.262;7.066;2023-03-02T17:17:19;7.20;62.20
24162;DHT22;12318;51.262;7.066;2023-03-02T17:19:45;7.00;64.20
24162;DHT22;12318;51.262;7.066;2023-03-02T17:22:10;7.00;66.10
24162;DHT22;12318;51.262;7.066;2023-03-02T17:24:36;6.90;68.10
24162;DHT22;12318;51.262;7.066;2023-03-02T17:27:02;6.80;69.40
24162;DHT22;12318;51.262;7.066;2023-03-02T17:29:28;6.80;70.50
24162;DHT22;12318;51.262;7.066;2023-03-02T17:31:53;6.70;71.40
24162;DHT22;12318;51.262;7.066;2023-03-02T17:34:20;6.70;71.90
24162;DHT22;12318;51.262;7.066;2023-03-02T17:36:45;6.60;72.40
24162;DHT22;12318;51.262;7.066;2023-03-02T17:39:13;6.50;73.60
24162;DHT22;12318;51.262;7.066;2023-03-02T17:41:39;6.40;74.30
24162;DHT22;12318;51.262;7.066;2023-03-02T17:44:05;6.50;74.90
24162;DHT22;12318;51.262;7.066;2023-03-02T17:46:31;6.40;75.30
24162;DHT22;12318;51.262;7.066;2023-03-02T17:48:59;6.40;75.50
24162;DHT22;12318;51.262;7.066;2023-03-02T17:51:26;6.30;76.10
24162;DHT22;12318;51.262;7.066;2023-03-02T17:53:53;6.30;76.90
24162;DHT22;12318;51.262;7.066;2023-03-02T17:56:22;6.20;77.70